Time;durP1;ratioP1;P1;durP2;ratioP2;P2;SDS_P1;SDS_P2;PMS_P1;PMS_P2;Temp;Humidity;BMP_temperature;BMP_pressure;BME280_temperature;BME280_humidity;BME280_pressure;Samples;Min_cycle;Max_cycle;Signal;HPM_P1;HPM_P2
2023/10/16 00:02:24;;;;;;;0.30;0.30;;;12.40;63.70;;;;;;5059198;28;20063;-65
2023/10/16 00:04:52;;;;;;;1.13;0.50;;;12.40;63.80;;;;;;5058635;28;20021;-65
2023/10/16 00:07:21;;;;;;;0.88;0.43;;;12.40;63.80;;;;;;5058515;28;20036;-64
2023/10/16 00:09:49;;;;;;;1.63;0.38;;;12.40;63.80;;;;;;5058411;28;20063;-64
2023/10/16 00:12:19;;;;;;;0.85;0.60;;;12.40;63.70;;;;;;5041407;28;20068;-64
2023/10/16 00:14:47;;;;;;;0.50;0.50;;;12.30;63.90;;;;;;5058305;28;20041;-64
2023/10/16 00:17:15;;;;;;;2.13;0.50;;;12.30;63.70;;;;;;5040818;28;20021;-64
2023/10/16 00:19:44;;;;;;;0.43;0.43;;;12.40;63.80;;;;;;5058557;28;20381;-65
2023/10/16 00:22:18;;;;;;;0.52;0.40;;;12.30;63.80;;;;;;5058544;28;20108;-64
2023/10/16 00:24:48;;;;;;;0.52;0.50;;;12.30;63.80;;;;;;5058530;28;20029;-64
2023/10/16 00:27:15;;;;;;;0.45;0.40;;;12.40;63.70;;;;;;5058195;28;20519;-64
2023/10/16 00:29:42;;;;;;;0.85;0.50;;;12.40;63.70;;;;;;5040473;28;20485;-64
2023/10/16 00:32:12;;;;;;;0.60;0.60;;;12.40;63.70;;;;;;5058006;28;20032;-64
2023/10/16 00:34:38;;;;;;;0.77;0.50;;;12.40;63.80;;;;;;5058049;28;20025;-64
2023/10/16 00:37:06;;;;;;;0.85;0.40;;;12.40;63.50;;;;;;5040627;28;20335;-64
2023/10/16 00:39:35;;;;;;;0.40;0.40;;;12.40;63.10;;;;;;5058130;28;20029;-65
2023/10/16 00:42:02;;;;;;;1.40;0.40;;;12.40;63.40;;;;;;5057872;28;20025;-64
2023/10/16 00:44:34;;;;;;;0.68;0.63;;;12.30;63.40;;;;;;5040202;28;20025;-64
2023/10/16 00:47:04;;;;;;;0.60;0.60;;;12.40;63.50;;;;;;5057931;28;20484;-64
2023/10/16 00:49:33;;;;;;;2.60;0.98;;;12.40;63.60;;;;;;5040957;28;20067;-64
2023/10/16 00:52:03;;;;;;;0.50;0.50;;;12.30;63.60;;;;;;5057976;28;20021;-64
2023/10/16 00:54:33;;;;;;;0.65;0.60;;;12.20;63.60;;;;;;5057623;28;20453;-64
2023/10/16 00:57:00;;;;;;;0.95;0.50;;;12.20;63.80;;;;;;5057571;28;20112;-64
2023/10/16 00:59:27;;;;;;;0.73;0.65;;;12.10;63.90;;;;;;5057464;28;20453;-64
2023/10/16 01:04:55;;;;;;;0.70;0.60;;;12.10;63.90;;;;;;4977221;28;20041;-64
2023/10/16 01:07:23;;;;;;;0.88;0.60;;;12.00;64.00;;;;;;4977499;28;20113;-64
2023/10/16 01:09:50;;;;;;;0.70;0.50;;;12.00;64.10;;;;;;4976856;28;20035;-64
2023/10/16 01:12:16;;;;;;;1.30;0.73;;;12.00;64.10;;;;;;4976901;28;20125;-64
2023/10/16 01:14:43;;;;;;;0.82;0.60;;;12.00;64.00;;;;;;4960711;28;20049;-64
2023/10/16 01:17:09;;;;;;;0.60;0.50;;;12.00;64.00;;;;;;4960620;28;20031;-65
2023/10/16 01:19:36;;;;;;;0.50;0.50;;;12.00;64.00;;;;;;4977118;28;20519;-65
2023/10/16 01:22:03;;;;;;;0.60;0.60;;;12.00;63.90;;;;;;4976670;28;20070;-64
2023/10/16 01:24:32;;;;;;;1.25;0.90;;;12.00;64.10;;;;;;4961049;28;20022;-64
2023/10/16 01:27:14;;;;;;;1.95;1.17;;;12.00;64.00;;;;;;4976895;28;20192;-64
2023/10/16 01:29:41;;;;;;;2.33;1.35;;;12.00;64.00;;;;;;4976478;28;20065;-64
2023/10/16 01:32:07;;;;;;;1.30;1.08;;;12.00;64.00;;;;;;4976640;28;20089;-64
2023/10/16 01:34:34;;;;;;;1.77;1.30;;;12.00;64.00;;;;;;4960222;28;20054;-64
2023/10/16 01:37:08;;;;;;;2.50;1.60;;;12.00;63.90;;;;;;4976442;28;20026;-64
2023/10/16 01:39:47;;;;;;;2.42;1.30;;;12.00;64.00;;;;;;5041094;28;20044;-64
2023/10/16 01:42:15;;;;;;;2.28;1.50;;;11.90;63.90;;;;;;5056741;28;20028;-64
2023/10/16 01:44:43;;;;;;;2.08;1.10;;;11.90;63.90;;;;;;5056696;28;20038;-64
2023/10/16 01:47:16;;;;;;;1.48;1.10;;;11.90;64.10;;;;;;5056431;28;20076;-64
2023/10/16 01:49:43;;;;;;;1.52;0.93;;;11.80;64.10;;;;;;5056526;28;20470;-64
2023/10/16 01:52:11;;;;;;;1.42;0.98;;;11.80;64.20;;;;;;5056628;28;20029;-64
2023/10/16 01:54:44;;;;;;;0.47;0.47;;;11.70;64.10;;;;;;5056411;28;20037;-64
2023/10/16 01:57:10;;;;;;;1.25;0.70;;;11.70;64.20;;;;;;5056328;28;20044;-64
2023/10/16 01:59:44;;;;;;;0.88;0.80;;;11.70;64.30;;;;;;5056628;28;20316;-64
2023/10/16 02:02:12;;;;;;;1.20;0.73;;;11.70;64.30;;;;;;5056637;28;20029;-64
2023/10/16 02:04:39;;;;;;;1.08;0.75;;;11.70;64.10;;;;;;5056641;28;20013;-64
2023/10/16 02:07:09;;;;;;;2.33;0.65;;;11.70;64.30;;;;;;5056863;28;20426;-64
2023/10/16 02:09:39;;;;;;;1.60;0.80;;;11.70;64.30;;;;;;5056214;28;20036;-64
2023/10/16 02:12:10;;;;;;;0.73;0.73;;;11.70;64.30;;;;;;5039131;28;20370;-64
2023/10/16 02:14:40;;;;;;;1.15;0.65;;;11.80;64.10;;;;;;5056055;28;20447;-64
2023/10/16 02:17:14;;;;;;;1.40;0.75;;;11.70;64.20;;;;;;5056657;28;20104;-64
2023/10/16 02:19:43;;;;;;;;;;;11.70;64.10;;;;;;5056707;28;20029;-64
2023/10/16 02:22:11;;;;;;;0.90;0.80;;;11.80;63.90;;;;;;5056818;28;19950;-64
2023/10/16 02:24:37;;;;;;;0.77;0.65;;;11.80;63.80;;;;;;5056028;28;20029;-64
2023/10/16 02:27:11;;;;;;;0.50;0.50;;;11.80;63.70;;;;;;5038810;28;20036;-64
2023/10/16 02:29:39;;;;;;;0.55;0.52;;;11.90;64.40;;;;;;5022491;28;20033;-64
2023/10/16 02:32:09;;;;;;;1.38;0.85;;;12.20;63.80;;;;;;5055848;28;20060;-64
2023/10/16 02:34:36;;;;;;;1.40;0.77;;;12.40;61.80;;;;;;5056004;28;20040;-64
2023/10/16 02:37:06;;;;;;;1.15;0.80;;;12.30;62.40;;;;;;5038259;28;20392;-64
2023/10/16 02:39:37;;;;;;;0.80;0.70;;;12.20;62.70;;;;;;5038123;28;20017;-64
2023/10/16 02:42:12;;;;;;;0.77;0.70;;;12.20;62.80;;;;;;5055675;28;20355;-64
2023/10/16 02:44:39;;;;;;;0.88;0.70;;;12.00;63.20;;;;;;5055956;28;20090;-64
2023/10/16 02:47:08;;;;;;;1.58;0.75;;;11.90;63.30;;;;;;5055439;28;20059;-65
2023/10/16 02:49:34;;;;;;;1.30;0.80;;;11.90;63.40;;;;;;5038389;28;20036;-64
2023/10/16 02:52:00;;;;;;;0.70;0.70;;;11.90;63.70;;;;;;5055561;28;20037;-64
2023/10/16 02:54:26;;;;;;;0.98;0.70;;;11.80;63.60;;;;;;5055664;28;20029;-64
2023/10/16 02:56:59;;;;;;;0.70;0.70;;;11.80;63.70;;;;;;5055508;28;20458;-64
2023/10/16 02:59:31;;;;;;;0.70;0.60;;;11.80;63.40;;;;;;5055349;28;20033;-64
2023/10/16 03:01:57;;;;;;;0.75;0.70;;;11.80;63.50;;;;;;5055684;28;20021;-64
2023/10/16 03:04:23;;;;;;;1.42;0.88;;;11.90;63.20;;;;;;5055925;28;20024;-64
2023/10/16 03:06:53;;;;;;;5.15;0.63;;;11.90;63.00;;;;;;5055607;28;20029;-65
2023/10/16 03:09:25;;;;;;;1.02;0.73;;;11.90;63.20;;;;;;5054325;28;20451;-64
2023/10/16 03:12:04;;;;;;;1.83;0.63;;;11.90;63.20;;;;;;5037799;28;20356;-64
2023/10/16 03:14:44;;;;;;;0.90;0.80;;;11.90;63.40;;;;;;5055186;28;20429;-64
2023/10/16 03:17:18;;;;;;;0.60;0.60;;;11.90;63.00;;;;;;5055521;28;20039;-64
2023/10/16 03:19:48;;;;;;;1.35;0.95;;;11.90;63.30;;;;;;5055462;28;20025;-64
2023/10/16 03:22:15;;;;;;;0.77;0.70;;;11.80;62.80;;;;;;5037671;28;20104;-64
2023/10/16 03:24:43;;;;;;;1.10;1.00;;;11.80;63.00;;;;;;5055199;28;20017;-64
2023/10/16 03:27:09;;;;;;;1.60;0.90;;;11.80;62.70;;;;;;5055176;28;20361;-64
2023/10/16 03:29:35;;;;;;;1.02;0.88;;;11.80;62.70;;;;;;5055327;28;20036;-65
2023/10/16 03:32:02;;;;;;;1.10;0.73;;;11.70;62.90;;;;;;5055417;28;20457;-64
2023/10/16 03:34:31;;;;;;;1.50;0.85;;;11.80;63.00;;;;;;5054978;28;20446;-64
2023/10/16 03:37:06;;;;;;;0.88;0.80;;;11.70;63.10;;;;;;5055342;28;20096;-64
2023/10/16 03:39:32;;;;;;;1.55;0.73;;;11.70;62.70;;;;;;5007114;28;20124;-64
2023/10/16 03:41:58;;;;;;;1.20;1.02;;;11.70;63.10;;;;;;5054958;28;20029;-64
2023/10/16 03:44:26;;;;;;;0.80;0.80;;;11.60;63.20;;;;;;5055266;28;20146;-64
2023/10/16 03:46:55;;;;;;;2.17;0.90;;;11.60;63.10;;;;;;5054695;28;20053;-64
2023/10/16 03:49:22;;;;;;;2.35;0.80;;;11.60;63.10;;;;;;5054814;28;20036;-65
2023/10/16 03:51:50;;;;;;;1.38;0.73;;;11.60;63.00;;;;;;5037897;28;20028;-64
2023/10/16 03:54:23;;;;;;;2.95;0.90;;;11.60;62.70;;;;;;5054826;28;20078;-64
2023/10/16 03:56:49;;;;;;;0.70;0.70;;;11.70;62.90;;;;;;5055231;28;20110;-64
2023/10/16 03:59:15;;;;;;;1.08;0.90;;;11.70;62.80;;;;;;5054700;28;20450;-65
2023/10/16 04:01:44;;;;;;;0.82;0.80;;;11.70;62.70;;;;;;5055086;28;20017;-65
2023/10/16 04:04:12;;;;;;;0.88;0.82;;;11.70;63.00;;;;;;5037241;28;20029;-64
2023/10/16 04:06:39;;;;;;;3.35;1.00;;;11.80;62.90;;;;;;5037252;28;20040;-64
2023/10/16 04:09:06;;;;;;;0.80;0.80;;;11.70;63.00;;;;;;5037276;28;20025;-64
2023/10/16 04:11:32;;;;;;;1.17;0.90;;;11.70;63.20;;;;;;5054914;28;20037;-64
2023/10/16 04:13:59;;;;;;;0.73;0.70;;;11.80;62.70;;;;;;5037206;28;20025;-65
2023/10/16 04:17:00;;;;;;;1.00;0.90;;;11.80;62.50;;;;;;5054910;28;20144;-64
2023/10/16 04:21:47;;;;;;;1.02;0.90;;;11.80;62.40;;;;;;5058344;28;20029;-64
2023/10/16 04:29:34;;;;;;;1.08;0.80;;;11.80;62.00;;;;;;5058138;28;20029;-64
2023/10/16 04:32:20;;;;;;;0.82;0.82;;;11.80;61.90;;;;;;5058137;28;20067;-64
2023/10/16 04:34:52;;;;;;;0.60;0.60;;;11.80;61.80;;;;;;5058013;28;20040;-64
2023/10/16 04:50:31;;;;;;;1.67;0.93;;;11.80;61.50;;;;;;5058637;28;20481;-64
2023/10/16 05:06:37;;;;;;;1.20;0.90;;;11.80;61.10;;;;;;5058134;28;20469;-64
2023/10/16 05:10:12;;;;;;;1.58;0.90;;;11.80;61.50;;;;;;5057208;28;20040;-65
2023/10/16 05:17:22;;;;;;;1.30;1.00;;;11.70;61.60;;;;;;5057331;28;20035;-65
2023/10/16 05:19:54;;;;;;;2.45;0.90;;;11.80;61.00;;;;;;5057778;28;20018;-65
2023/10/16 06:14:47;;;;;;;2.45;1.10;;;12.00;60.10;;;;;;5076383;28;20458;-63
2023/10/16 06:17:15;;;;;;;3.53;1.42;;;12.00;60.60;;;;;;5076382;28;20453;-64
2023/10/16 06:19:45;;;;;;;4.10;1.20;;;12.00;60.50;;;;;;5075864;28;20031;-64
2023/10/16 06:22:12;;;;;;;3.92;1.30;;;12.10;60.70;;;;;;5076089;28;20087;-64
2023/10/16 06:24:44;;;;;;;2.70;1.40;;;12.20;60.40;;;;;;5075165;28;20074;-65
2023/10/16 06:27:11;;;;;;;4.95;1.35;;;12.20;59.90;;;;;;5075996;28;20460;-64
2023/10/16 06:29:51;;;;;;;4.57;1.33;;;12.30;59.90;;;;;;5076320;28;20099;-64
2023/10/16 06:32:21;;;;;;;2.33;1.20;;;12.40;59.50;;;;;;5075874;28;20028;-63
2023/10/16 06:34:52;;;;;;;6.47;2.17;;;12.40;60.00;;;;;;5075616;28;20406;-66
2023/10/16 06:37:18;;;;;;;2.65;1.50;;;12.60;59.20;;;;;;5074817;28;20017;-64
2023/10/16 06:39:57;;;;;;;3.78;1.30;;;12.60;58.80;;;;;;5076136;28;20051;-65
2023/10/16 06:42:25;;;;;;;4.28;1.80;;;12.60;58.10;;;;;;5074699;28;20021;-64
2023/10/16 06:44:56;;;;;;;2.58;1.23;;;12.70;57.30;;;;;;5075589;28;20111;-63
2023/10/16 06:47:34;;;;;;;3.95;1.67;;;12.70;58.70;;;;;;5075427;28;20052;-64
2023/10/16 06:50:33;;;;;;;3.28;1.52;;;12.80;57.90;;;;;;5074590;28;20115;-64
2023/10/16 06:52:54;;;;;;;1.98;1.30;;;12.80;58.10;;;;;;5075394;28;20430;-63
2023/10/16 06:55:22;;;;;;;2.40;1.25;;;12.90;57.50;;;;;;5075391;28;20019;-61
2023/10/16 06:57:49;;;;;;;2.28;1.10;;;12.90;57.00;;;;;;5075389;28;20020;-64
2023/10/16 07:00:33;;;;;;;2.75;1.10;;;12.90;56.00;;;;;;5075430;28;20027;-64
2023/10/16 07:03:09;;;;;;;4.38;0.95;;;12.90;56.00;;;;;;5075886;28;20025;-63
2023/10/16 07:05:44;;;;;;;4.78;1.17;;;13.00;56.60;;;;;;5075291;28;20441;-63
2023/10/16 07:08:18;;;;;;;1.40;0.90;;;13.00;55.40;;;;;;5074371;28;20024;-63
2023/10/16 07:10:49;;;;;;;2.72;1.02;;;13.10;55.80;;;;;;5075270;28;20066;-63
2023/10/16 07:13:17;;;;;;;4.45;0.90;;;13.10;56.50;;;;;;5070783;28;20037;-63
2023/10/16 07:15:49;;;;;;;3.55;1.10;;;13.20;55.40;;;;;;5038444;28;20043;-64
2023/10/16 07:18:15;;;;;;;2.53;0.88;;;13.20;54.30;;;;;;5055666;28;20053;-64
2023/10/16 07:23:39;;;;;;;1.75;1.00;;;13.20;54.40;;;;;;4974526;28;20034;-65
2023/10/16 07:26:06;;;;;;;2.15;1.10;;;13.30;53.70;;;;;;4974427;28;20445;-64
2023/10/16 07:28:33;;;;;;;2.67;1.10;;;13.30;53.50;;;;;;4974566;28;20547;-64
2023/10/16 07:30:59;;;;;;;2.63;1.00;;;13.40;53.50;;;;;;4974389;28;20055;-63
2023/10/16 07:33:27;;;;;;;3.17;1.00;;;13.40;54.20;;;;;;4987031;28;20062;-63
2023/10/16 07:35:54;;;;;;;3.17;1.50;;;13.50;54.20;;;;;;4993416;28;20034;-63
2023/10/16 07:38:26;;;;;;;1.08;0.98;;;13.50;52.90;;;;;;4973850;28;20029;-63
2023/10/16 07:40:55;;;;;;;2.58;1.35;;;13.60;52.80;;;;;;4981049;28;20428;-62
2023/10/16 07:43:29;;;;;;;2.30;1.13;;;13.70;50.20;;;;;;4983411;28;20109;-62
2023/10/16 07:48:53;;;;;;;2.10;0.98;;;13.80;50.70;;;;;;4997792;28;20034;-62
2023/10/16 07:51:26;;;;;;;2.45;0.93;;;13.90;50.10;;;;;;5013385;28;20042;-61
2023/10/16 07:53:56;;;;;;;2.42;1.00;;;13.90;51.00;;;;;;5013813;28;20071;-62
2023/10/16 07:56:25;;;;;;;3.25;1.25;;;14.00;50.90;;;;;;5013295;28;20030;-63
2023/10/16 07:59:06;;;;;;;2.70;0.88;;;14.00;50.30;;;;;;5037367;28;20047;-63
2023/10/16 08:01:41;;;;;;;2.05;1.08;;;14.10;50.90;;;;;;5078573;28;20020;-63
2023/10/16 08:04:51;;;;;;;2.05;1.30;;;14.20;50.60;;;;;;5078524;28;20059;-63
2023/10/16 08:07:05;;;;;;;4.85;0.90;;;14.30;49.80;;;;;;5072557;28;20082;-63
2023/10/16 08:12:12;;;;;;;3.45;1.10;;;14.40;49.00;;;;;;5075284;28;20099;-63
2023/10/16 08:14:42;;;;;;;2.65;1.00;;;14.50;48.00;;;;;;5072923;28;20040;-63
2023/10/16 08:17:14;;;;;;;1.70;0.95;;;14.50;48.60;;;;;;5064477;28;20029;-63
2023/10/16 08:19:45;;;;;;;3.42;1.10;;;14.60;48.30;;;;;;5058916;28;20344;-64
2023/10/16 08:22:15;;;;;;;3.13;1.08;;;14.60;47.40;;;;;;5058944;28;20036;-64
2023/10/16 08:24:57;;;;;;;2.33;1.15;;;14.60;48.20;;;;;;5058312;28;20017;-64
2023/10/16 08:33:07;;;;;;;3.05;1.33;;;14.80;47.50;;;;;;5058177;28;20048;-64
2023/10/16 08:35:38;;;;;;;1.38;0.77;;;14.90;48.30;;;;;;5058299;28;20052;-65
2023/10/16 08:38:20;;;;;;;1.35;1.00;;;14.90;47.10;;;;;;5058004;28;20025;-65
2023/10/16 08:40:59;;;;;;;2.40;0.75;;;15.00;45.60;;;;;;5057865;28;20025;-64
2023/10/16 08:43:39;;;;;;;4.45;1.20;;;15.20;45.50;;;;;;5057677;28;20103;-65
2023/10/16 08:46:18;;;;;;;4.85;1.30;;;15.30;47.10;;;;;;5055643;28;20052;-65
2023/10/16 08:48:52;;;;;;;1.88;0.88;;;15.40;45.30;;;;;;5038360;28;20424;-65
2023/10/16 08:51:19;;;;;;;3.05;1.00;;;15.50;43.70;;;;;;5055860;28;20032;-66
2023/10/16 08:53:45;;;;;;;1.33;0.88;;;15.40;43.90;;;;;;5038233;28;20025;-66
2023/10/16 08:56:17;;;;;;;1.40;0.88;;;15.50;44.10;;;;;;5038312;28;20033;-66
2023/10/16 08:58:44;;;;;;;3.97;0.93;;;15.60;44.30;;;;;;5055913;28;20057;-66
2023/10/16 09:01:13;;;;;;;5.53;1.00;;;15.60;44.70;;;;;;5057548;28;20057;-66
2023/10/16 09:03:49;;;;;;;1.42;0.98;;;15.50;42.60;;;;;;5057523;28;20021;-66
2023/10/16 09:06:24;;;;;;;1.10;0.75;;;15.50;42.70;;;;;;5056155;28;20029;-65
2023/10/16 09:08:54;;;;;;;1.58;0.90;;;15.50;43.60;;;;;;5057494;28;20021;-65
2023/10/16 09:11:21;;;;;;;2.28;0.90;;;15.50;42.50;;;;;;5057357;28;20071;-66
2023/10/16 09:13:51;;;;;;;1.88;0.80;;;15.60;43.30;;;;;;5057635;28;20025;-66
2023/10/16 09:16:25;;;;;;;1.77;0.90;;;15.60;42.50;;;;;;5057924;28;20025;-66
2023/10/16 09:18:53;;;;;;;1.15;0.85;;;15.70;41.70;;;;;;5057594;28;20017;-66
2023/10/16 09:21:23;;;;;;;1.85;1.08;;;15.60;39.30;;;;;;5039609;28;20036;-66
2023/10/16 09:23:52;;;;;;;0.70;0.60;;;15.60;39.30;;;;;;5039640;28;20017;-66
2023/10/16 09:26:22;;;;;;;1.95;0.90;;;15.60;38.00;;;;;;5057122;28;20402;-65
2023/10/16 09:28:53;;;;;;;2.00;0.90;;;15.70;38.90;;;;;;5057081;28;20033;-66
2023/10/16 09:31:20;;;;;;;1.60;0.75;;;15.80;39.90;;;;;;5056975;28;20043;-66
2023/10/16 09:33:48;;;;;;;1.95;0.80;;;15.90;39.80;;;;;;5040060;28;20354;-66
2023/10/16 09:36:18;;;;;;;2.47;1.05;;;15.90;40.20;;;;;;5056871;28;20071;-66
2023/10/16 09:38:51;;;;;;;2.38;0.90;;;16.00;41.00;;;;;;5056821;28;20029;-66
2023/10/16 09:44:09;;;;;;;4.90;1.03;;;16.00;40.40;;;;;;5057171;28;20446;-66
2023/10/16 09:49:13;;;;;;;2.30;0.90;;;16.00;41.60;;;;;;5037435;28;20116;-66
2023/10/16 09:51:40;;;;;;;2.80;1.08;;;16.10;40.80;;;;;;5035782;28;20025;-66
2023/10/16 09:54:08;;;;;;;2.20;1.10;;;16.10;41.40;;;;;;5036697;28;20442;-66
2023/10/16 09:56:41;;;;;;;5.80;1.58;;;16.00;41.40;;;;;;5036876;28;20041;-66
2023/10/16 09:59:22;;;;;;;3.92;1.35;;;16.00;40.00;;;;;;5037403;28;20036;-66
2023/10/16 10:01:55;;;;;;;4.85;1.60;;;15.90;41.50;;;;;;5036769;28;20459;-66
2023/10/16 10:04:24;;;;;;;3.03;1.00;;;15.90;40.70;;;;;;5036806;28;20095;-66
2023/10/16 10:06:57;;;;;;;2.67;0.98;;;15.90;40.40;;;;;;5051833;28;20025;-65
2023/10/16 10:09:44;;;;;;;1.13;0.98;;;15.90;40.70;;;;;;5051945;28;20075;-66
2023/10/16 10:12:28;;;;;;;5.03;1.17;;;15.90;41.90;;;;;;5035466;28;20034;-65
2023/10/16 10:15:15;;;;;;;2.80;1.23;;;15.90;41.20;;;;;;5036192;28;20095;-65
2023/10/16 10:17:46;;;;;;;2.83;1.27;;;16.00;41.40;;;;;;5036064;28;20022;-65
2023/10/16 10:20:39;;;;;;;2.97;1.10;;;16.00;41.00;;;;;;5052055;28;20447;-66
2023/10/16 10:23:08;;;;;;;1.40;0.82;;;16.10;41.70;;;;;;5036067;28;20029;-66
2023/10/16 10:25:37;;;;;;;2.47;0.80;;;16.20;39.50;;;;;;5036860;28;20037;-66
2023/10/16 10:28:10;;;;;;;2.85;1.10;;;16.30;40.80;;;;;;5036244;28;20055;-66
2023/10/16 10:30:49;;;;;;;4.75;1.10;;;16.40;40.20;;;;;;5036220;28;20018;-66
2023/10/16 10:33:38;;;;;;;3.53;1.10;;;16.40;40.60;;;;;;5036497;28;20029;-66
2023/10/16 10:36:33;;;;;;;3.45;1.00;;;16.40;39.40;;;;;;5036378;28;20036;-66
2023/10/16 10:39:21;;;;;;;2.63;1.35;;;16.40;39.70;;;;;;5036104;28;20359;-66
2023/10/16 10:41:50;;;;;;;1.98;1.05;;;16.40;39.20;;;;;;5036361;28;20025;-66
2023/10/16 10:44:28;;;;;;;1.80;1.10;;;16.50;38.80;;;;;;5036016;28;20025;-66
2023/10/16 10:46:55;;;;;;;3.10;1.52;;;16.40;40.30;;;;;;5050166;28;20375;-66
2023/10/16 10:49:33;;;;;;;2.65;0.90;;;16.40;38.90;;;;;;5036160;28;20061;-66
2023/10/16 10:52:12;;;;;;;1.30;0.90;;;16.40;38.90;;;;;;5035985;28;20450;-66
2023/10/16 10:54:48;;;;;;;1.98;0.70;;;16.40;38.70;;;;;;5035934;28;20029;-66
2023/10/16 10:57:23;;;;;;;2.60;1.00;;;16.40;39.90;;;;;;5035549;28;20466;-66
2023/10/16 10:59:55;;;;;;;1.27;0.88;;;16.40;39.30;;;;;;5035915;28;20496;-65
2023/10/16 11:04:53;;;;;;;3.10;1.27;;;16.40;38.70;;;;;;5036389;28;20120;-66
2023/10/16 11:07:29;;;;;;;2.80;0.88;;;16.30;38.80;;;;;;5035470;28;20335;-66
2023/10/16 11:09:57;;;;;;;3.03;1.38;;;16.20;38.60;;;;;;5050793;28;20101;-66
2023/10/16 11:12:26;;;;;;;4.07;1.10;;;16.30;39.70;;;;;;5035290;28;20075;-66
2023/10/16 11:14:56;;;;;;;2.92;0.98;;;16.30;39.00;;;;;;5035840;28;20037;-66
2023/10/16 11:17:37;;;;;;;2.13;0.90;;;16.40;38.80;;;;;;5035251;28;20104;-66
2023/10/16 11:22:46;;;;;;;2.30;1.00;;;16.60;39.90;;;;;;5035334;28;20049;-65
2023/10/16 11:25:15;;;;;;;1.17;0.80;;;16.60;38.40;;;;;;5035543;28;20112;-66
2023/10/16 11:27:42;;;;;;;1.60;0.95;;;16.70;39.30;;;;;;5035505;28;20049;-66
2023/10/16 11:30:18;;;;;;;1.60;1.17;;;16.80;39.00;;;;;;5036229;28;20036;-66
2023/10/16 11:32:47;;;;;;;1.63;0.95;;;16.80;38.50;;;;;;5039345;28;20021;-65
2023/10/16 11:35:17;;;;;;;2.50;0.68;;;16.80;38.00;;;;;;5038295;28;20083;-67
2023/10/16 11:37:59;;;;;;;1.55;0.98;;;16.80;38.40;;;;;;5054815;28;20026;-66
2023/10/16 11:40:32;;;;;;;1.83;1.00;;;16.70;39.00;;;;;;5039467;28;20026;-66
2023/10/16 11:42:58;;;;;;;1.58;1.00;;;16.80;38.80;;;;;;5039445;28;20025;-66
2023/10/16 11:45:25;;;;;;;2.70;0.93;;;16.70;38.70;;;;;;5055049;28;20056;-66
2023/10/16 11:50:39;;;;;;;1.42;1.00;;;16.80;38.40;;;;;;5059200;28;20036;-66
2023/10/16 11:53:08;;;;;;;1.67;0.98;;;16.90;39.30;;;;;;5059182;28;20029;-66
2023/10/16 11:55:38;;;;;;;5.55;1.30;;;16.90;37.80;;;;;;5041946;28;20040;-65
2023/10/16 11:58:10;;;;;;;1.17;0.85;;;16.90;38.20;;;;;;5058754;28;20342;-66
2023/10/16 12:00:36;;;;;;;2.03;0.90;;;16.90;38.60;;;;;;5058680;28;20032;-66
2023/10/16 12:03:07;;;;;;;3.72;1.30;;;16.90;38.60;;;;;;5059220;28;20025;-66
2023/10/16 12:05:34;;;;;;;4.53;1.27;;;16.80;38.60;;;;;;5058913;28;20076;-65
2023/10/16 12:08:02;;;;;;;4.72;1.00;;;16.70;38.80;;;;;;5058836;28;20167;-66
2023/10/16 12:10:29;;;;;;;3.40;1.13;;;16.90;39.30;;;;;;5058412;28;20366;-66
2023/10/16 12:12:55;;;;;;;2.10;1.13;;;16.90;37.90;;;;;;5058434;28;20020;-66
2023/10/16 12:15:24;;;;;;;2.78;1.00;;;16.90;38.40;;;;;;5058446;28;20036;-66
2023/10/16 12:17:50;;;;;;;3.53;1.10;;;17.00;38.20;;;;;;5058411;28;20025;-66
2023/10/16 12:20:16;;;;;;;1.25;0.90;;;16.90;38.10;;;;;;5058301;28;20024;-66
2023/10/16 12:22:44;;;;;;;5.05;1.10;;;16.90;39.20;;;;;;5058598;28;20100;-66
2023/10/16 12:25:12;;;;;;;2.60;0.82;;;16.90;39.00;;;;;;5041044;28;20462;-65
2023/10/16 12:27:43;;;;;;;1.45;0.80;;;17.00;38.70;;;;;;5058278;28;20028;-66
2023/10/16 12:30:13;;;;;;;2.65;1.25;;;17.00;38.80;;;;;;5058156;28;20098;-66
2023/10/16 12:32:55;;;;;;;2.60;0.90;;;17.00;38.10;;;;;;5058159;28;20049;-66
2023/10/16 12:35:28;;;;;;;2.17;1.10;;;17.10;39.40;;;;;;5058033;28;20040;-66
2023/10/16 12:37:55;;;;;;;1.80;1.17;;;17.20;38.70;;;;;;5058004;28;20032;-66
2023/10/16 12:40:33;;;;;;;3.22;1.25;;;17.20;37.90;;;;;;5057992;28;20052;-65
2023/10/16 12:43:00;;;;;;;1.55;0.90;;;17.20;38.70;;;;;;5057936;28;20358;-66
2023/10/16 12:45:27;;;;;;;1.30;0.80;;;17.20;38.50;;;;;;5058211;28;20106;-66
2023/10/16 12:47:54;;;;;;;3.83;0.82;;;17.30;38.90;;;;;;5057761;28;20052;-66
2023/10/16 12:50:25;;;;;;;1.10;1.00;;;17.40;38.40;;;;;;5058411;28;20083;-66
2023/10/16 12:52:51;;;;;;;1.98;0.93;;;17.40;38.60;;;;;;5058094;28;20033;-66
2023/10/16 12:55:19;;;;;;;2.22;0.95;;;17.50;39.10;;;;;;5057650;28;20064;-66
2023/10/16 12:57:48;;;;;;;2.03;0.73;;;17.60;37.90;;;;;;5040361;28;20472;-66
2023/10/16 13:00:19;;;;;;;2.30;0.95;;;17.50;37.50;;;;;;5057529;28;20082;-66
2023/10/16 13:02:46;;;;;;;1.60;0.80;;;17.60;37.90;;;;;;5057591;28;20048;-66
2023/10/16 13:05:24;;;;;;;0.77;0.75;;;17.60;36.50;;;;;;5057564;28;20504;-66
2023/10/16 13:07:53;;;;;;;2.20;1.00;;;17.50;36.50;;;;;;5057445;28;20033;-66
2023/10/16 13:10:26;;;;;;;1.70;1.00;;;17.40;36.40;;;;;;5057266;28;20060;-66
2023/10/16 13:12:53;;;;;;;3.27;0.93;;;17.40;37.10;;;;;;5057728;28;20033;-66
2023/10/16 13:15:24;;;;;;;4.72;0.90;;;17.30;37.40;;;;;;5057507;28;20364;-66
2023/10/16 13:17:52;;;;;;;1.58;0.82;;;17.30;37.70;;;;;;5057336;28;20025;-66
2023/10/16 13:20:18;;;;;;;2.90;1.10;;;17.30;37.90;;;;;;5057237;28;20021;-66
2023/10/16 13:22:56;;;;;;;1.15;0.52;;;17.40;37.60;;;;;;5057460;28;20067;-66
2023/10/16 13:25:25;;;;;;;2.03;0.90;;;17.50;37.90;;;;;;5015805;28;20034;-66
2023/10/16 13:27:53;;;;;;;1.85;1.20;;;17.50;37.40;;;;;;4999682;28;20045;-66
2023/10/16 13:30:22;;;;;;;3.08;1.10;;;17.50;37.80;;;;;;5015733;28;20049;-66
2023/10/16 13:32:48;;;;;;;1.33;0.80;;;17.50;38.20;;;;;;5015511;28;20482;-66
2023/10/16 13:35:20;;;;;;;3.88;1.25;;;17.60;38.00;;;;;;4999784;28;20038;-66
2023/10/16 13:37:50;;;;;;;2.22;1.30;;;17.50;38.30;;;;;;4999315;28;20462;-66
2023/10/16 13:40:28;;;;;;;2.42;1.10;;;17.50;37.90;;;;;;5015793;28;20066;-66
2023/10/16 13:43:00;;;;;;;2.33;1.20;;;17.60;38.70;;;;;;5015478;28;20069;-66
2023/10/16 13:45:33;;;;;;;3.45;1.67;;;17.60;38.80;;;;;;5015449;28;20046;-66
2023/10/16 13:48:00;;;;;;;2.30;1.60;;;17.60;36.80;;;;;;5015176;28;20132;-66
2023/10/16 13:50:28;;;;;;;4.30;1.58;;;17.60;38.30;;;;;;5015249;28;20045;-66
2023/10/16 13:52:54;;;;;;;5.25;2.13;;;17.60;38.00;;;;;;4998091;28;20431;-66
2023/10/16 13:55:30;;;;;;;2.72;1.30;;;17.50;36.20;;;;;;5022228;28;20056;-66
2023/10/16 13:57:56;;;;;;;2.03;1.35;;;17.40;36.50;;;;;;5056443;28;20363;-66
2023/10/16 14:00:35;;;;;;;2.53;1.42;;;17.40;37.20;;;;;;5056415;28;20477;-66
2023/10/16 14:03:10;;;;;;;2.88;1.48;;;17.40;37.00;;;;;;5056462;28;20032;-66
2023/10/16 14:05:58;;;;;;;3.15;1.42;;;17.40;37.60;;;;;;5056397;28;20029;-66
2023/10/16 14:08:26;;;;;;;3.00;1.70;;;17.40;37.40;;;;;;5056073;28;20045;-66
2023/10/16 14:10:57;;;;;;;2.65;1.70;;;17.40;37.80;;;;;;5056776;28;20021;-66
2023/10/16 14:13:27;;;;;;;3.15;1.40;;;17.40;37.60;;;;;;5056594;28;20115;-66
2023/10/16 14:16:01;;;;;;;2.08;1.20;;;17.30;38.00;;;;;;5038875;28;20021;-66
2023/10/16 14:18:29;;;;;;;1.63;1.30;;;17.30;38.40;;;;;;5040181;28;20059;-66
2023/10/16 14:20:58;;;;;;;2.33;1.50;;;17.40;38.10;;;;;;5056274;28;20070;-66
2023/10/16 14:23:28;;;;;;;2.15;1.00;;;17.30;37.70;;;;;;5056009;28;20052;-66
2023/10/16 14:25:58;;;;;;;1.60;1.20;;;17.30;37.80;;;;;;5056293;28;20035;-66
2023/10/16 14:28:34;;;;;;;3.45;1.60;;;17.40;38.40;;;;;;5056505;28;20043;-66
2023/10/16 14:31:05;;;;;;;2.65;1.20;;;17.40;35.80;;;;;;5055872;28;20033;-66
2023/10/16 14:33:32;;;;;;;1.15;0.98;;;17.40;38.20;;;;;;5056081;28;20040;-66
2023/10/16 14:35:59;;;;;;;2.30;0.98;;;17.50;38.30;;;;;;5055801;28;20057;-66
2023/10/16 14:38:27;;;;;;;3.25;1.25;;;17.60;38.30;;;;;;5055791;28;20028;-66
2023/10/16 14:41:04;;;;;;;3.00;1.40;;;17.50;37.50;;;;;;5055711;28;20017;-66
2023/10/16 14:43:30;;;;;;;1.60;1.20;;;17.50;37.50;;;;;;5055706;28;20086;-66
2023/10/16 14:46:00;;;;;;;4.55;1.10;;;17.60;38.00;;;;;;5055475;28;20454;-66
2023/10/16 14:48:26;;;;;;;5.30;1.33;;;17.70;38.20;;;;;;5038088;28;20127;-66
2023/10/16 14:50:53;;;;;;;1.95;0.98;;;17.80;38.30;;;;;;5055771;28;20063;-66
2023/10/16 14:53:20;;;;;;;3.67;1.10;;;17.90;38.50;;;;;;5055796;28;20029;-66
2023/10/16 14:55:48;;;;;;;2.92;0.90;;;17.90;38.30;;;;;;5055475;28;20025;-66
2023/10/16 14:58:18;;;;;;;1.90;0.80;;;17.90;38.50;;;;;;5055753;28;20033;-66
2023/10/16 15:00:48;;;;;;;2.90;1.40;;;17.90;38.90;;;;;;5055545;28;20025;-66
2023/10/16 15:03:15;;;;;;;2.45;1.30;;;17.90;39.00;;;;;;5055277;28;20351;-66
2023/10/16 15:05:41;;;;;;;4.70;1.02;;;17.90;38.80;;;;;;5038302;28;20029;-66
2023/10/16 15:08:12;;;;;;;2.72;1.05;;;18.00;39.10;;;;;;5055631;28;20056;-66
2023/10/16 15:10:46;;;;;;;3.03;1.30;;;18.00;39.10;;;;;;5037776;28;20108;-66